sensor_id;sensor_type;location;lat;lon;timestamp;P1;durP1;ratioP1;P2;durP2;ratioP2
26620;SDS011;14253;44.840;10.444;2024-03-06T00:02:00;5.88;;;4.60;;
26620;SDS011;14253;44.840;10.444;2024-03-06T00:04:27;6.13;;;4.57;;
26620;SDS011;14253;44.840;10.444;2024-03-06T00:06:53;6.95;;;4.35;;
26620;SDS011;14253;44.840;10.444;2024-03-06T00:09:20;5.18;;;3.97;;
26620;SDS011;14253;44.840;10.444;2024-03-06T00:11:46;4.95;;;3.80;;
26620;SDS011;14253;44.840;10.444;2024-03-06T00:14:12;5.32;;;3.58;;
26620;SDS011;14253;44.840;10.444;2024-03-06T00:16:38;6.30;;;3.25;;
26620;SDS011;14253;44.840;10.444;2024-03-06T00:19:04;4.32;;;3.00;;
26620;SDS011;14253;44.840;10.444;2024-03-06T00:21:30;5.57;;;2.60;;
26620;SDS011;14253;44.840;10.444;2024-03-06T00:23:56;3.88;;;2.63;;
26620;SDS011;14253;44.840;10.444;2024-03-06T00:26:22;5.07;;;2.60;;
26620;SDS011;14253;44.840;10.444;2024-03-06T00:28:48;3.95;;;2.70;;
26620;SDS011;14253;44.840;10.444;2024-03-06T00:31:14;6.22;;;2.70;;
26620;SDS011;14253;44.840;10.444;2024-03-06T00:33:40;4.20;;;2.53;;
26620;SDS011;14253;44.840;10.444;2024-03-06T00:36:06;3.75;;;2.25;;
26620;SDS011;14253;44.840;10.444;2024-03-06T00:38:33;3.45;;;2.55;;
26620;SDS011;14253;44.840;10.444;2024-03-06T00:40:58;4.00;;;2.30;;
26620;SDS011;14253;44.840;10.444;2024-03-06T00:43:24;4.78;;;2.35;;
26620;SDS011;14253;44.840;10.444;2024-03-06T00:45:50;4.60;;;2.95;;
26620;SDS011;14253;44.840;10.444;2024-03-06T00:48:16;4.82;;;3.70;;
26620;SDS011;14253;44.840;10.444;2024-03-06T00:50:45;4.45;;;3.10;;
26620;SDS011;14253;44.840;10.444;2024-03-06T00:53:11;6.50;;;3.83;;
26620;SDS011;14253;44.840;10.444;2024-03-06T00:55:37;5.70;;;3.22;;
26620;SDS011;14253;44.840;10.444;2024-03-06T00:58:03;5.70;;;3.95;;
26620;SDS011;14253;44.840;10.444;2024-03-06T01:00:32;22.67;;;11.70;;
26620;SDS011;14253;44.840;10.444;2024-03-06T01:02:58;17.05;;;9.52;;
26620;SDS011;14253;44.840;10.444;2024-03-06T01:05:24;7.18;;;4.88;;
26620;SDS011;14253;44.840;10.444;2024-03-06T01:07:49;7.30;;;4.80;;
26620;SDS011;14253;44.840;10.444;2024-03-06T01:10:15;7.75;;;4.95;;
26620;SDS011;14253;44.840;10.444;2024-03-06T01:12:41;9.88;;;5.30;;
26620;SDS011;14253;44.840;10.444;2024-03-06T01:15:11;8.20;;;5.90;;
26620;SDS011;14253;44.840;10.444;2024-03-06T01:17:37;10.82;;;6.78;;
26620;SDS011;14253;44.840;10.444;2024-03-06T01:20:03;9.38;;;6.15;;
26620;SDS011;14253;44.840;10.444;2024-03-06T01:22:32;10.10;;;6.00;;
26620;SDS011;14253;44.840;10.444;2024-03-06T01:25:01;9.98;;;6.93;;
26620;SDS011;14253;44.840;10.444;2024-03-06T01:27:27;10.13;;;6.78;;
26620;SDS011;14253;44.840;10.444;2024-03-06T01:29:53;12.18;;;8.05;;
26620;SDS011;14253;44.840;10.444;2024-03-06T01:32:19;12.00;;;7.80;;
26620;SDS011;14253;44.840;10.444;2024-03-06T01:34:45;12.30;;;7.75;;
26620;SDS011;14253;44.840;10.444;2024-03-06T01:37:11;12.45;;;8.10;;
26620;SDS011;14253;44.840;10.444;2024-03-06T01:39:37;10.70;;;7.47;;
26620;SDS011;14253;44.840;10.444;2024-03-06T01:42:03;11.65;;;8.27;;
26620;SDS011;14253;44.840;10.444;2024-03-06T01:44:29;12.52;;;8.18;;
26620;SDS011;14253;44.840;10.444;2024-03-06T01:46:55;12.38;;;8.65;;
26620;SDS011;14253;44.840;10.444;2024-03-06T01:49:21;13.18;;;8.82;;
26620;SDS011;14253;44.840;10.444;2024-03-06T01:51:48;12.52;;;8.75;;
26620;SDS011;14253;44.840;10.444;2024-03-06T01:54:18;12.35;;;8.60;;
26620;SDS011;14253;44.840;10.444;2024-03-06T01:56:45;12.43;;;9.18;;
26620;SDS011;14253;44.840;10.444;2024-03-06T01:59:13;14.10;;;8.82;;
26620;SDS011;14253;44.840;10.444;2024-03-06T02:01:41;12.30;;;8.90;;
26620;SDS011;14253;44.840;10.444;2024-03-06T02:04:08;13.95;;;8.75;;
26620;SDS011;14253;44.840;10.444;2024-03-06T02:06:40;14.02;;;9.10;;
26620;SDS011;14253;44.840;10.444;2024-03-06T02:09:06;12.02;;;8.23;;
26620;SDS011;14253;44.840;10.444;2024-03-06T02:11:34;13.63;;;7.75;;
26620;SDS011;14253;44.840;10.444;2024-03-06T02:14:03;10.63;;;7.20;;
26620;SDS011;14253;44.840;10.444;2024-03-06T02:16:31;11.98;;;6.25;;
26620;SDS011;14253;44.840;10.444;2024-03-06T02:18:57;7.43;;;5.63;;
26620;SDS011;14253;44.840;10.444;2024-03-06T02:21:24;6.95;;;4.97;;
26620;SDS011;14253;44.840;10.444;2024-03-06T02:23:50;10.90;;;5.55;;
26620;SDS011;14253;44.840;10.444;2024-03-06T02:26:17;9.68;;;5.97;;
26620;SDS011;14253;44.840;10.444;2024-03-06T02:28:50;7.90;;;5.60;;
26620;SDS011;14253;44.840;10.444;2024-03-06T02:31:17;7.65;;;5.38;;
26620;SDS011;14253;44.840;10.444;2024-03-06T02:33:43;7.70;;;5.60;;
26620;SDS011;14253;44.840;10.444;2024-03-06T02:36:13;7.07;;;4.82;;
26620;SDS011;14253;44.840;10.444;2024-03-06T02:38:40;6.80;;;4.88;;
26620;SDS011;14253;44.840;10.444;2024-03-06T02:41:06;8.25;;;4.93;;
26620;SDS011;14253;44.840;10.444;2024-03-06T02:43:32;8.02;;;5.00;;
26620;SDS011;14253;44.840;10.444;2024-03-06T02:45:59;7.75;;;4.93;;
26620;SDS011;14253;44.840;10.444;2024-03-06T02:48:25;8.55;;;4.90;;
26620;SDS011;14253;44.840;10.444;2024-03-06T02:50:51;7.75;;;4.70;;
26620;SDS011;14253;44.840;10.444;2024-03-06T02:53:17;7.57;;;4.55;;
26620;SDS011;14253;44.840;10.444;2024-03-06T02:55:43;6.68;;;4.65;;
26620;SDS011;14253;44.840;10.444;2024-03-06T02:58:09;6.25;;;4.03;;
26620;SDS011;14253;44.840;10.444;2024-03-06T03:00:35;6.07;;;4.00;;
26620;SDS011;14253;44.840;10.444;2024-03-06T03:03:01;7.03;;;4.10;;
26620;SDS011;14253;44.840;10.444;2024-03-06T03:05:27;6.03;;;4.57;;
26620;SDS011;14253;44.840;10.444;2024-03-06T03:07:53;7.25;;;4.63;;
26620;SDS011;14253;44.840;10.444;2024-03-06T03:10:20;5.45;;;3.97;;
26620;SDS011;14253;44.840;10.444;2024-03-06T03:12:46;5.28;;;3.95;;
26620;SDS011;14253;44.840;10.444;2024-03-06T03:15:12;4.85;;;3.75;;
26620;SDS011;14253;44.840;10.444;2024-03-06T03:17:38;5.32;;;3.58;;
26620;SDS011;14253;44.840;10.444;2024-03-06T03:20:04;5.07;;;3.92;;
26620;SDS011;14253;44.840;10.444;2024-03-06T03:22:36;5.15;;;3.95;;
26620;SDS011;14253;44.840;10.444;2024-03-06T03:25:03;5.38;;;3.15;;
26620;SDS011;14253;44.840;10.444;2024-03-06T03:27:32;4.95;;;3.58;;
26620;SDS011;14253;44.840;10.444;2024-03-06T03:29:58;5.88;;;4.05;;
26620;SDS011;14253;44.840;10.444;2024-03-06T03:32:24;5.10;;;3.30;;
26620;SDS011;14253;44.840;10.444;2024-03-06T03:34:50;5.28;;;3.63;;
26620;SDS011;14253;44.840;10.444;2024-03-06T03:37:16;4.40;;;3.60;;
26620;SDS011;14253;44.840;10.444;2024-03-06T03:39:45;5.60;;;3.50;;
26620;SDS011;14253;44.840;10.444;2024-03-06T03:42:11;5.82;;;4.05;;
26620;SDS011;14253;44.840;10.444;2024-03-06T03:44:37;4.57;;;3.33;;
26620;SDS011;14253;44.840;10.444;2024-03-06T03:47:03;5.35;;;3.45;;
26620;SDS011;14253;44.840;10.444;2024-03-06T03:49:29;4.93;;;3.75;;
26620;SDS011;14253;44.840;10.444;2024-03-06T03:51:55;4.40;;;3.60;;
26620;SDS011;14253;44.840;10.444;2024-03-06T03:54:21;4.28;;;3.28;;
26620;SDS011;14253;44.840;10.444;2024-03-06T03:56:46;4.55;;;3.40;;
26620;SDS011;14253;44.840;10.444;2024-03-06T03:59:13;5.80;;;3.35;;
26620;SDS011;14253;44.840;10.444;2024-03-06T04:01:41;4.70;;;3.45;;
26620;SDS011;14253;44.840;10.444;2024-03-06T04:04:09;4.35;;;3.50;;
26620;SDS011;14253;44.840;10.444;2024-03-06T04:06:35;4.13;;;3.38;;
26620;SDS011;14253;44.840;10.444;2024-03-06T04:09:01;5.35;;;3.63;;
26620;SDS011;14253;44.840;10.444;2024-03-06T04:11:27;3.83;;;3.20;;
26620;SDS011;14253;44.840;10.444;2024-03-06T04:13:54;5.85;;;4.07;;
26620;SDS011;14253;44.840;10.444;2024-03-06T04:16:20;10.35;;;3.70;;
26620;SDS011;14253;44.840;10.444;2024-03-06T04:18:46;5.65;;;3.80;;
26620;SDS011;14253;44.840;10.444;2024-03-06T04:21:12;5.43;;;4.03;;
26620;SDS011;14253;44.840;10.444;2024-03-06T04:23:40;5.90;;;3.92;;
26620;SDS011;14253;44.840;10.444;2024-03-06T04:26:06;4.63;;;3.45;;
26620;SDS011;14253;44.840;10.444;2024-03-06T04:28:32;4.63;;;3.35;;
26620;SDS011;14253;44.840;10.444;2024-03-06T04:30:58;7.13;;;3.53;;
26620;SDS011;14253;44.840;10.444;2024-03-06T04:33:24;4.50;;;3.30;;
26620;SDS011;14253;44.840;10.444;2024-03-06T04:35:49;5.05;;;3.60;;
26620;SDS011;14253;44.840;10.444;2024-03-06T04:38:16;5.07;;;3.22;;
26620;SDS011;14253;44.840;10.444;2024-03-06T04:40:42;4.75;;;3.55;;
26620;SDS011;14253;44.840;10.444;2024-03-06T04:43:08;5.05;;;3.58;;
26620;SDS011;14253;44.840;10.444;2024-03-06T04:45:34;3.10;;;2.80;;
26620;SDS011;14253;44.840;10.444;2024-03-06T04:48:00;4.07;;;3.10;;
26620;SDS011;14253;44.840;10.444;2024-03-06T04:50:26;5.32;;;3.42;;
26620;SDS011;14253;44.840;10.444;2024-03-06T04:52:52;4.88;;;3.70;;
26620;SDS011;14253;44.840;10.444;2024-03-06T04:55:18;5.30;;;3.97;;
26620;SDS011;14253;44.840;10.444;2024-03-06T04:57:47;5.22;;;3.42;;
26620;SDS011;14253;44.840;10.444;2024-03-06T05:00:14;7.80;;;4.47;;
26620;SDS011;14253;44.840;10.444;2024-03-06T05:02:41;6.57;;;4.90;;
26620;SDS011;14253;44.840;10.444;2024-03-06T05:05:07;8.15;;;4.60;;
26620;SDS011;14253;44.840;10.444;2024-03-06T05:07:33;6.63;;;3.88;;
26620;SDS011;14253;44.840;10.444;2024-03-06T05:09:59;5.03;;;3.67;;
26620;SDS011;14253;44.840;10.444;2024-03-06T05:12:26;4.38;;;3.15;;
26620;SDS011;14253;44.840;10.444;2024-03-06T05:14:53;5.40;;;4.00;;
26620;SDS011;14253;44.840;10.444;2024-03-06T05:17:20;6.43;;;3.97;;
26620;SDS011;14253;44.840;10.444;2024-03-06T05:19:46;7.72;;;4.03;;
26620;SDS011;14253;44.840;10.444;2024-03-06T05:22:14;7.45;;;4.20;;
26620;SDS011;14253;44.840;10.444;2024-03-06T05:24:41;12.30;;;4.30;;
26620;SDS011;14253;44.840;10.444;2024-03-06T05:27:08;5.25;;;3.83;;
26620;SDS011;14253;44.840;10.444;2024-03-06T05:29:35;6.32;;;3.83;;
26620;SDS011;14253;44.840;10.444;2024-03-06T05:32:02;6.88;;;3.83;;
26620;SDS011;14253;44.840;10.444;2024-03-06T05:34:32;6.22;;;3.72;;
26620;SDS011;14253;44.840;10.444;2024-03-06T05:36:59;4.53;;;3.72;;
26620;SDS011;14253;44.840;10.444;2024-03-06T05:39:26;3.88;;;3.42;;
26620;SDS011;14253;44.840;10.444;2024-03-06T05:41:59;6.38;;;3.92;;
26620;SDS011;14253;44.840;10.444;2024-03-06T05:44:28;4.43;;;3.30;;
26620;SDS011;14253;44.840;10.444;2024-03-06T05:46:54;4.88;;;3.65;;
26620;SDS011;14253;44.840;10.444;2024-03-06T05:49:20;8.95;;;3.70;;
26620;SDS011;14253;44.840;10.444;2024-03-06T05:51:46;6.10;;;4.45;;
26620;SDS011;14253;44.840;10.444;2024-03-06T05:54:12;5.72;;;3.78;;
26620;SDS011;14253;44.840;10.444;2024-03-06T05:56:37;4.20;;;3.55;;
26620;SDS011;14253;44.840;10.444;2024-03-06T05:59:04;4.20;;;3.33;;
26620;SDS011;14253;44.840;10.444;2024-03-06T06:01:36;11.30;;;4.22;;
26620;SDS011;14253;44.840;10.444;2024-03-06T06:04:02;5.57;;;4.30;;
26620;SDS011;14253;44.840;10.444;2024-03-06T06:06:28;6.82;;;4.10;;
26620;SDS011;14253;44.840;10.444;2024-03-06T06:08:54;6.18;;;4.03;;
26620;SDS011;14253;44.840;10.444;2024-03-06T06:11:20;6.95;;;4.28;;
26620;SDS011;14253;44.840;10.444;2024-03-06T06:13:46;8.93;;;4.22;;
26620;SDS011;14253;44.840;10.444;2024-03-06T06:16:12;6.15;;;3.92;;
26620;SDS011;14253;44.840;10.444;2024-03-06T06:18:40;5.13;;;3.38;;
26620;SDS011;14253;44.840;10.444;2024-03-06T06:21:07;4.85;;;3.67;;
26620;SDS011;14253;44.840;10.444;2024-03-06T06:23:34;6.85;;;4.20;;
26620;SDS011;14253;44.840;10.444;2024-03-06T06:26:00;5.35;;;4.53;;
26620;SDS011;14253;44.840;10.444;2024-03-06T06:28:26;6.43;;;4.30;;
26620;SDS011;14253;44.840;10.444;2024-03-06T06:30:52;8.98;;;4.85;;
26620;SDS011;14253;44.840;10.444;2024-03-06T06:33:18;9.68;;;4.57;;
26620;SDS011;14253;44.840;10.444;2024-03-06T06:35:46;6.78;;;5.03;;
26620;SDS011;14253;44.840;10.444;2024-03-06T06:38:12;7.82;;;4.72;;
26620;SDS011;14253;44.840;10.444;2024-03-06T06:40:38;7.60;;;3.72;;
26620;SDS011;14253;44.840;10.444;2024-03-06T06:43:05;9.43;;;5.10;;
26620;SDS011;14253;44.840;10.444;2024-03-06T06:45:31;14.52;;;4.45;;
26620;SDS011;14253;44.840;10.444;2024-03-06T06:48:03;16.15;;;4.60;;
26620;SDS011;14253;44.840;10.444;2024-03-06T06:50:29;5.10;;;4.20;;
26620;SDS011;14253;44.840;10.444;2024-03-06T06:52:56;7.50;;;4.00;;
26620;SDS011;14253;44.840;10.444;2024-03-06T06:55:24;8.55;;;4.10;;
26620;SDS011;14253;44.840;10.444;2024-03-06T06:57:50;8.45;;;4.43;;
26620;SDS011;14253;44.840;10.444;2024-03-06T07:00:17;3.40;;;2.75;;
26620;SDS011;14253;44.840;10.444;2024-03-06T07:02:44;5.20;;;2.97;;
26620;SDS011;14253;44.840;10.444;2024-03-06T07:05:10;3.85;;;2.53;;
26620;SDS011;14253;44.840;10.444;2024-03-06T07:07:37;5.30;;;2.40;;
26620;SDS011;14253;44.840;10.444;2024-03-06T07:10:03;10.15;;;3.00;;
26620;SDS011;14253;44.840;10.444;2024-03-06T07:12:31;5.20;;;2.50;;
26620;SDS011;14253;44.840;10.444;2024-03-06T07:14:57;6.95;;;2.20;;
26620;SDS011;14253;44.840;10.444;2024-03-06T07:17:24;4.18;;;1.83;;
26620;SDS011;14253;44.840;10.444;2024-03-06T07:19:50;3.13;;;1.83;;
26620;SDS011;14253;44.840;10.444;2024-03-06T07:22:18;2.15;;;1.85;;
26620;SDS011;14253;44.840;10.444;2024-03-06T07:24:44;3.13;;;1.90;;
26620;SDS011;14253;44.840;10.444;2024-03-06T07:27:10;5.10;;;2.13;;
26620;SDS011;14253;44.840;10.444;2024-03-06T07:29:37;4.18;;;2.08;;
26620;SDS011;14253;44.840;10.444;2024-03-06T07:32:03;4.05;;;2.33;;
26620;SDS011;14253;44.840;10.444;2024-03-06T07:34:32;2.38;;;1.70;;
26620;SDS011;14253;44.840;10.444;2024-03-06T07:36:59;3.47;;;1.55;;
26620;SDS011;14253;44.840;10.444;2024-03-06T07:39:25;2.67;;;1.58;;
26620;SDS011;14253;44.840;10.444;2024-03-06T07:41:51;3.63;;;1.85;;
26620;SDS011;14253;44.840;10.444;2024-03-06T07:44:18;6.47;;;1.88;;
26620;SDS011;14253;44.840;10.444;2024-03-06T07:46:45;3.45;;;1.55;;
26620;SDS011;14253;44.840;10.444;2024-03-06T07:49:11;2.50;;;1.65;;
26620;SDS011;14253;44.840;10.444;2024-03-06T07:51:37;4.93;;;1.48;;
26620;SDS011;14253;44.840;10.444;2024-03-06T07:54:05;2.55;;;2.00;;
26620;SDS011;14253;44.840;10.444;2024-03-06T07:56:32;3.58;;;1.30;;
26620;SDS011;14253;44.840;10.444;2024-03-06T07:59:00;1.85;;;1.30;;
26620;SDS011;14253;44.840;10.444;2024-03-06T08:01:31;1.48;;;1.38;;
26620;SDS011;14253;44.840;10.444;2024-03-06T08:03:58;2.90;;;1.15;;
26620;SDS011;14253;44.840;10.444;2024-03-06T08:06:25;2.67;;;1.02;;
26620;SDS011;14253;44.840;10.444;2024-03-06T08:08:52;1.65;;;1.15;;
26620;SDS011;14253;44.840;10.444;2024-03-06T08:11:18;2.08;;;0.80;;
26620;SDS011;14253;44.840;10.444;2024-03-06T08:13:44;1.83;;;0.93;;
26620;SDS011;14253;44.840;10.444;2024-03-06T08:16:10;1.60;;;1.30;;
26620;SDS011;14253;44.840;10.444;2024-03-06T08:18:36;3.60;;;1.80;;
26620;SDS011;14253;44.840;10.444;2024-03-06T08:21:02;1.85;;;1.38;;
26620;SDS011;14253;44.840;10.444;2024-03-06T08:23:30;2.65;;;1.48;;
26620;SDS011;14253;44.840;10.444;2024-03-06T08:25:56;2.47;;;1.60;;
26620;SDS011;14253;44.840;10.444;2024-03-06T08:28:22;2.88;;;1.75;;
26620;SDS011;14253;44.840;10.444;2024-03-06T08:30:48;2.72;;;1.55;;
26620;SDS011;14253;44.840;10.444;2024-03-06T08:33:15;2.08;;;1.23;;
26620;SDS011;14253;44.840;10.444;2024-03-06T08:35:42;1.75;;;1.20;;
26620;SDS011;14253;44.840;10.444;2024-03-06T08:38:08;2.88;;;1.00;;
26620;SDS011;14253;44.840;10.444;2024-03-06T08:40:34;1.75;;;0.90;;
26620;SDS011;14253;44.840;10.444;2024-03-06T08:43:00;5.20;;;1.45;;
26620;SDS011;14253;44.840;10.444;2024-03-06T08:45:26;1.30;;;1.20;;
26620;SDS011;14253;44.840;10.444;2024-03-06T08:47:52;1.55;;;0.90;;
26620;SDS011;14253;44.840;10.444;2024-03-06T08:50:19;2.42;;;1.67;;
26620;SDS011;14253;44.840;10.444;2024-03-06T08:52:46;2.08;;;1.00;;
26620;SDS011;14253;44.840;10.444;2024-03-06T08:55:12;4.93;;;1.65;;
26620;SDS011;14253;44.840;10.444;2024-03-06T08:57:38;2.55;;;1.25;;
26620;SDS011;14253;44.840;10.444;2024-03-06T09:00:08;4.20;;;1.60;;
26620;SDS011;14253;44.840;10.444;2024-03-06T09:02:36;1.95;;;1.25;;
26620;SDS011;14253;44.840;10.444;2024-03-06T09:05:04;3.17;;;1.10;;
26620;SDS011;14253;44.840;10.444;2024-03-06T09:07:31;3.17;;;1.70;;
26620;SDS011;14253;44.840;10.444;2024-03-06T09:10:03;2.17;;;1.38;;
26620;SDS011;14253;44.840;10.444;2024-03-06T09:12:30;3.03;;;1.45;;
26620;SDS011;14253;44.840;10.444;2024-03-06T09:14:57;3.67;;;1.50;;
26620;SDS011;14253;44.840;10.444;2024-03-06T09:17:23;2.88;;;1.67;;
26620;SDS011;14253;44.840;10.444;2024-03-06T09:19:49;3.63;;;2.47;;
26620;SDS011;14253;44.840;10.444;2024-03-06T09:22:15;3.55;;;2.10;;
26620;SDS011;14253;44.840;10.444;2024-03-06T09:24:41;3.97;;;2.50;;
26620;SDS011;14253;44.840;10.444;2024-03-06T09:27:07;2.42;;;1.90;;
26620;SDS011;14253;44.840;10.444;2024-03-06T09:29:32;4.13;;;2.28;;
26620;SDS011;14253;44.840;10.444;2024-03-06T09:31:58;4.43;;;2.35;;
26620;SDS011;14253;44.840;10.444;2024-03-06T09:34:24;4.25;;;2.95;;
26620;SDS011;14253;44.840;10.444;2024-03-06T09:36:51;6.53;;;3.97;;
26620;SDS011;14253;44.840;10.444;2024-03-06T09:39:18;6.32;;;3.45;;
26620;SDS011;14253;44.840;10.444;2024-03-06T09:41:50;5.30;;;3.25;;
26620;SDS011;14253;44.840;10.444;2024-03-06T09:44:17;6.50;;;3.00;;
26620;SDS011;14253;44.840;10.444;2024-03-06T09:46:44;4.47;;;2.72;;
26620;SDS011;14253;44.840;10.444;2024-03-06T09:49:11;4.10;;;3.50;;
26620;SDS011;14253;44.840;10.444;2024-03-06T09:51:41;6.00;;;3.80;;
26620;SDS011;14253;44.840;10.444;2024-03-06T09:54:11;4.63;;;2.93;;
26620;SDS011;14253;44.840;10.444;2024-03-06T09:56:46;6.45;;;3.92;;
26620;SDS011;14253;44.840;10.444;2024-03-06T09:59:13;7.60;;;4.30;;
26620;SDS011;14253;44.840;10.444;2024-03-06T10:01:48;8.93;;;4.20;;
26620;SDS011;14253;44.840;10.444;2024-03-06T10:04:23;8.68;;;5.15;;
26620;SDS011;14253;44.840;10.444;2024-03-06T10:06:50;8.57;;;5.20;;
26620;SDS011;14253;44.840;10.444;2024-03-06T10:09:23;6.40;;;5.55;;
26620;SDS011;14253;44.840;10.444;2024-03-06T10:11:50;8.82;;;4.65;;
26620;SDS011;14253;44.840;10.444;2024-03-06T10:14:19;9.18;;;5.05;;
26620;SDS011;14253;44.840;10.444;2024-03-06T10:16:55;7.65;;;4.55;;
26620;SDS011;14253;44.840;10.444;2024-03-06T10:19:23;10.13;;;4.97;;
26620;SDS011;14253;44.840;10.444;2024-03-06T10:21:50;7.03;;;4.90;;
26620;SDS011;14253;44.840;10.444;2024-03-06T10:24:20;7.55;;;5.00;;
26620;SDS011;14253;44.840;10.444;2024-03-06T10:26:48;7.25;;;5.60;;
26620;SDS011;14253;44.840;10.444;2024-03-06T10:29:16;6.97;;;5.85;;
26620;SDS011;14253;44.840;10.444;2024-03-06T10:31:53;7.15;;;5.50;;
26620;SDS011;14253;44.840;10.444;2024-03-06T10:34:22;7.72;;;5.40;;
26620;SDS011;14253;44.840;10.444;2024-03-06T10:39:22;9.15;;;4.55;;
26620;SDS011;14253;44.840;10.444;2024-03-06T10:41:53;5.72;;;4.70;;
26620;SDS011;14253;44.840;10.444;2024-03-06T10:44:22;6.90;;;4.68;;
26620;SDS011;14253;44.840;10.444;2024-03-06T10:47:01;10.80;;;5.05;;
26620;SDS011;14253;44.840;10.444;2024-03-06T10:49:28;5.35;;;4.15;;
26620;SDS011;14253;44.840;10.444;2024-03-06T10:52:02;7.15;;;4.88;;
26620;SDS011;14253;44.840;10.444;2024-03-06T10:54:33;6.43;;;4.20;;
26620;SDS011;14253;44.840;10.444;2024-03-06T10:57:04;6.68;;;4.30;;
26620;SDS011;14253;44.840;10.444;2024-03-06T10:59:31;5.30;;;4.22;;
26620;SDS011;14253;44.840;10.444;2024-03-06T11:01:58;6.35;;;4.88;;
26620;SDS011;14253;44.840;10.444;2024-03-06T11:04:28;7.68;;;4.70;;
26620;SDS011;14253;44.840;10.444;2024-03-06T11:06:59;6.22;;;4.65;;
26620;SDS011;14253;44.840;10.444;2024-03-06T11:09:32;6.82;;;4.22;;
26620;SDS011;14253;44.840;10.444;2024-03-06T11:12:03;5.93;;;4.15;;
26620;SDS011;14253;44.840;10.444;2024-03-06T11:14:32;7.72;;;3.92;;
26620;SDS011;14253;44.840;10.444;2024-03-06T11:19:32;5.97;;;4.63;;
26620;SDS011;14253;44.840;10.444;2024-03-06T11:28:21;6.68;;;4.35;;
26620;SDS011;14253;44.840;10.444;2024-03-06T11:33:28;4.90;;;3.72;;
26620;SDS011;14253;44.840;10.444;2024-03-06T11:36:15;6.13;;;4.07;;
26620;SDS011;14253;44.840;10.444;2024-03-06T11:38:46;4.65;;;3.28;;
26620;SDS011;14253;44.840;10.444;2024-03-06T11:41:48;4.32;;;3.20;;
26620;SDS011;14253;44.840;10.444;2024-03-06T11:44:16;4.68;;;3.08;;
26620;SDS011;14253;44.840;10.444;2024-03-06T11:46:47;6.75;;;2.78;;
26620;SDS011;14253;44.840;10.444;2024-03-06T11:49:18;4.38;;;3.42;;
26620;SDS011;14253;44.840;10.444;2024-03-06T11:51:50;4.18;;;3.38;;
26620;SDS011;14253;44.840;10.444;2024-03-06T11:54:18;6.75;;;3.85;;
26620;SDS011;14253;44.840;10.444;2024-03-06T11:56:48;4.50;;;3.28;;
26620;SDS011;14253;44.840;10.444;2024-03-06T11:59:26;6.47;;;3.85;;
26620;SDS011;14253;44.840;10.444;2024-03-06T12:01:53;7.78;;;4.05;;
26620;SDS011;14253;44.840;10.444;2024-03-06T12:04:21;5.22;;;3.70;;
26620;SDS011;14253;44.840;10.444;2024-03-06T12:06:48;7.53;;;4.00;;
26620;SDS011;14253;44.840;10.444;2024-03-06T12:09:14;5.40;;;3.22;;
26620;SDS011;14253;44.840;10.444;2024-03-06T12:11:41;4.78;;;2.92;;
26620;SDS011;14253;44.840;10.444;2024-03-06T12:14:16;6.13;;;3.40;;
26620;SDS011;14253;44.840;10.444;2024-03-06T12:16:44;3.88;;;2.83;;
26620;SDS011;14253;44.840;10.444;2024-03-06T12:21:52;4.28;;;2.72;;
26620;SDS011;14253;44.840;10.444;2024-03-06T12:24:19;5.05;;;1.83;;
26620;SDS011;14253;44.840;10.444;2024-03-06T12:26:45;3.67;;;2.67;;
26620;SDS011;14253;44.840;10.444;2024-03-06T12:29:23;4.78;;;2.78;;
26620;SDS011;14253;44.840;10.444;2024-03-06T12:31:49;4.72;;;3.00;;
26620;SDS011;14253;44.840;10.444;2024-03-06T12:34:15;5.43;;;3.17;;
26620;SDS011;14253;44.840;10.444;2024-03-06T12:36:43;7.05;;;2.83;;
26620;SDS011;14253;44.840;10.444;2024-03-06T12:39:14;4.60;;;3.00;;
26620;SDS011;14253;44.840;10.444;2024-03-06T12:41:43;5.18;;;2.67;;
26620;SDS011;14253;44.840;10.444;2024-03-06T12:44:10;5.03;;;3.00;;
26620;SDS011;14253;44.840;10.444;2024-03-06T12:46:36;5.25;;;3.00;;
26620;SDS011;14253;44.840;10.444;2024-03-06T12:49:02;4.10;;;2.45;;
26620;SDS011;14253;44.840;10.444;2024-03-06T12:51:28;8.52;;;2.33;;
26620;SDS011;14253;44.840;10.444;2024-03-06T12:53:54;5.32;;;2.65;;
26620;SDS011;14253;44.840;10.444;2024-03-06T12:56:20;3.63;;;2.70;;
26620;SDS011;14253;44.840;10.444;2024-03-06T12:58:46;5.15;;;2.45;;
26620;SDS011;14253;44.840;10.444;2024-03-06T13:01:12;4.45;;;2.72;;
26620;SDS011;14253;44.840;10.444;2024-03-06T13:03:38;6.03;;;2.83;;
26620;SDS011;14253;44.840;10.444;2024-03-06T13:06:04;3.90;;;2.97;;
26620;SDS011;14253;44.840;10.444;2024-03-06T13:08:31;10.07;;;2.90;;
26620;SDS011;14253;44.840;10.444;2024-03-06T13:10:57;4.13;;;2.92;;
26620;SDS011;14253;44.840;10.444;2024-03-06T13:13:23;4.65;;;2.45;;
26620;SDS011;14253;44.840;10.444;2024-03-06T13:15:52;6.38;;;2.33;;
26620;SDS011;14253;44.840;10.444;2024-03-06T13:18:18;8.02;;;2.72;;
26620;SDS011;14253;44.840;10.444;2024-03-06T13:20:44;5.57;;;2.55;;
26620;SDS011;14253;44.840;10.444;2024-03-06T13:23:11;2.58;;;1.98;;
26620;SDS011;14253;44.840;10.444;2024-03-06T13:25:37;4.93;;;2.65;;
26620;SDS011;14253;44.840;10.444;2024-03-06T13:28:03;4.00;;;2.80;;
26620;SDS011;14253;44.840;10.444;2024-03-06T13:30:30;3.25;;;1.88;;
26620;SDS011;14253;44.840;10.444;2024-03-06T13:32:56;3.67;;;2.20;;
26620;SDS011;14253;44.840;10.444;2024-03-06T13:35:23;2.83;;;1.92;;
26620;SDS011;14253;44.840;10.444;2024-03-06T13:37:49;5.93;;;1.70;;
26620;SDS011;14253;44.840;10.444;2024-03-06T13:40:15;3.22;;;1.13;;
26620;SDS011;14253;44.840;10.444;2024-03-06T13:42:42;2.22;;;1.38;;
26620;SDS011;14253;44.840;10.444;2024-03-06T13:45:09;1.45;;;1.02;;
26620;SDS011;14253;44.840;10.444;2024-03-06T13:47:42;1.73;;;0.70;;
26620;SDS011;14253;44.840;10.444;2024-03-06T13:50:10;2.70;;;1.25;;
26620;SDS011;14253;44.840;10.444;2024-03-06T13:52:37;3.90;;;1.00;;
26620;SDS011;14253;44.840;10.444;2024-03-06T13:55:04;3.72;;;1.13;;
26620;SDS011;14253;44.840;10.444;2024-03-06T13:57:33;2.13;;;1.20;;
26620;SDS011;14253;44.840;10.444;2024-03-06T14:00:03;2.55;;;1.17;;
26620;SDS011;14253;44.840;10.444;2024-03-06T14:02:36;2.63;;;0.90;;
26620;SDS011;14253;44.840;10.444;2024-03-06T14:05:03;2.95;;;1.38;;
26620;SDS011;14253;44.840;10.444;2024-03-06T14:07:29;3.42;;;0.90;;
26620;SDS011;14253;44.840;10.444;2024-03-06T14:09:55;1.13;;;0.93;;
26620;SDS011;14253;44.840;10.444;2024-03-06T14:12:22;2.28;;;1.20;;
26620;SDS011;14253;44.840;10.444;2024-03-06T14:14:49;4.35;;;2.17;;
26620;SDS011;14253;44.840;10.444;2024-03-06T14:17:15;2.72;;;1.58;;
26620;SDS011;14253;44.840;10.444;2024-03-06T14:19:40;1.95;;;1.00;;
26620;SDS011;14253;44.840;10.444;2024-03-06T14:22:08;2.08;;;1.15;;
26620;SDS011;14253;44.840;10.444;2024-03-06T14:24:34;2.97;;;1.25;;
26620;SDS011;14253;44.840;10.444;2024-03-06T14:27:03;2.33;;;0.77;;
26620;SDS011;14253;44.840;10.444;2024-03-06T14:29:30;3.38;;;1.67;;
26620;SDS011;14253;44.840;10.444;2024-03-06T14:31:56;2.05;;;1.00;;
26620;SDS011;14253;44.840;10.444;2024-03-06T14:34:22;1.95;;;1.23;;
26620;SDS011;14253;44.840;10.444;2024-03-06T14:36:52;3.05;;;1.25;;
26620;SDS011;14253;44.840;10.444;2024-03-06T14:39:18;19.05;;;12.77;;
26620;SDS011;14253;44.840;10.444;2024-03-06T14:41:47;1.38;;;0.93;;
26620;SDS011;14253;44.840;10.444;2024-03-06T14:44:14;5.18;;;2.55;;
26620;SDS011;14253;44.840;10.444;2024-03-06T14:46:40;16.75;;;11.13;;
26620;SDS011;14253;44.840;10.444;2024-03-06T14:49:07;4.15;;;2.25;;
26620;SDS011;14253;44.840;10.444;2024-03-06T14:51:33;3.83;;;2.35;;